sensor_id;sensor_type;location;lat;lon;timestamp;P1;P2;P0
43479;PMS5003;29067;35.492;-97.520;2022-07-18T00:00:31;7;6;
43479;PMS5003;29067;35.492;-97.520;2022-07-18T00:03:00;6;6;
43479;PMS5003;29067;35.492;-97.520;2022-07-18T00:05:28;6;6;
43479;PMS5003;29067;35.492;-97.520;2022-07-18T00:07:56;6;6;
43479;PMS5003;29067;35.492;-97.520;2022-07-18T00:10:24;6;6;
43479;PMS5003;29067;35.492;-97.520;2022-07-18T00:12:53;6;6;
43479;PMS5003;29067;35.492;-97.520;2022-07-18T00:15:21;6;6;
43479;PMS5003;29067;35.492;-97.520;2022-07-18T00:17:49;5;5;
43479;PMS5003;29067;35.492;-97.520;2022-07-18T00:20:17;6;6;
43479;PMS5003;29067;35.492;-97.520;2022-07-18T00:22:46;7;6;
43479;PMS5003;29067;35.492;-97.520;2022-07-18T00:25:14;6;6;
43479;PMS5003;29067;35.492;-97.520;2022-07-18T00:27:42;7;7;
43479;PMS5003;29067;35.492;-97.520;2022-07-18T00:30:11;9;8;
43479;PMS5003;29067;35.492;-97.520;2022-07-18T00:32:39;7;7;
43479;PMS5003;29067;35.492;-97.520;2022-07-18T00:35:08;6;6;
43479;PMS5003;29067;35.492;-97.520;2022-07-18T00:37:36;4;4;
43479;PMS5003;29067;35.492;-97.520;2022-07-18T00:40:05;5;5;
43479;PMS5003;29067;35.492;-97.520;2022-07-18T00:42:33;5;5;
43479;PMS5003;29067;35.492;-97.520;2022-07-18T00:45:02;5;5;
43479;PMS5003;29067;35.492;-97.520;2022-07-18T00:47:30;7;7;
43479;PMS5003;29067;35.492;-97.520;2022-07-18T00:49:58;6;6;
43479;PMS5003;29067;35.492;-97.520;2022-07-18T00:52:26;7;6;
43479;PMS5003;29067;35.492;-97.520;2022-07-18T00:54:54;6;6;
43479;PMS5003;29067;35.492;-97.520;2022-07-18T00:57:23;5;5;
43479;PMS5003;29067;35.492;-97.520;2022-07-18T00:59:52;7;7;
43479;PMS5003;29067;35.492;-97.520;2022-07-18T01:02:20;7;6;
43479;PMS5003;29067;35.492;-97.520;2022-07-18T01:04:49;5;5;
43479;PMS5003;29067;35.492;-97.520;2022-07-18T01:23:09;5;5;
43479;PMS5003;29067;35.492;-97.520;2022-07-18T01:25:36;6;6;
43479;PMS5003;29067;35.492;-97.520;2022-07-18T01:28:04;7;7;
43479;PMS5003;29067;35.492;-97.520;2022-07-18T01:30:32;10;10;
43479;PMS5003;29067;35.492;-97.520;2022-07-18T01:33:01;11;10;
43479;PMS5003;29067;35.492;-97.520;2022-07-18T01:35:30;13;13;
43479;PMS5003;29067;35.492;-97.520;2022-07-18T01:38:00;18;18;
43479;PMS5003;29067;35.492;-97.520;2022-07-18T01:40:30;8;7;
43479;PMS5003;29067;35.492;-97.520;2022-07-18T01:42:58;9;7;
43479;PMS5003;29067;35.492;-97.520;2022-07-18T01:45:26;7;7;
43479;PMS5003;29067;35.492;-97.520;2022-07-18T01:47:54;7;7;
43479;PMS5003;29067;35.492;-97.520;2022-07-18T01:50:22;7;6;
43479;PMS5003;29067;35.492;-97.520;2022-07-18T01:52:51;5;5;
43479;PMS5003;29067;35.492;-97.520;2022-07-18T01:55:19;6;6;
43479;PMS5003;29067;35.492;-97.520;2022-07-18T01:57:48;7;7;
43479;PMS5003;29067;35.492;-97.520;2022-07-18T02:00:16;9;7;
43479;PMS5003;29067;35.492;-97.520;2022-07-18T02:02:45;8;7;
43479;PMS5003;29067;35.492;-97.520;2022-07-18T02:05:12;6;6;
43479;PMS5003;29067;35.492;-97.520;2022-07-18T02:07:41;6;5;
43479;PMS5003;29067;35.492;-97.520;2022-07-18T02:10:09;9;7;
43479;PMS5003;29067;35.492;-97.520;2022-07-18T02:12:40;8;8;
43479;PMS5003;29067;35.492;-97.520;2022-07-18T02:15:09;8;8;
43479;PMS5003;29067;35.492;-97.520;2022-07-18T02:17:39;8;8;
43479;PMS5003;29067;35.492;-97.520;2022-07-18T02:20:09;9;9;
43479;PMS5003;29067;35.492;-97.520;2022-07-18T02:22:40;9;9;
43479;PMS5003;29067;35.492;-97.520;2022-07-18T02:25:08;12;10;
43479;PMS5003;29067;35.492;-97.520;2022-07-18T02:27:37;11;10;
43479;PMS5003;29067;35.492;-97.520;2022-07-18T02:30:06;10;10;
43479;PMS5003;29067;35.492;-97.520;2022-07-18T02:32:35;10;10;
43479;PMS5003;29067;35.492;-97.520;2022-07-18T02:35:04;10;9;
43479;PMS5003;29067;35.492;-97.520;2022-07-18T02:37:34;12;11;
43479;PMS5003;29067;35.492;-97.520;2022-07-18T02:40:02;9;9;
43479;PMS5003;29067;35.492;-97.520;2022-07-18T02:42:30;9;8;
43479;PMS5003;29067;35.492;-97.520;2022-07-18T02:44:58;12;10;
43479;PMS5003;29067;35.492;-97.520;2022-07-18T02:47:26;11;10;
43479;PMS5003;29067;35.492;-97.520;2022-07-18T02:49:55;11;10;
43479;PMS5003;29067;35.492;-97.520;2022-07-18T02:52:23;10;10;
43479;PMS5003;29067;35.492;-97.520;2022-07-18T02:54:51;10;10;
43479;PMS5003;29067;35.492;-97.520;2022-07-18T02:57:20;11;11;
43479;PMS5003;29067;35.492;-97.520;2022-07-18T02:59:48;10;10;
43479;PMS5003;29067;35.492;-97.520;2022-07-18T03:02:16;8;8;
43479;PMS5003;29067;35.492;-97.520;2022-07-18T03:04:44;8;7;
43479;PMS5003;29067;35.492;-97.520;2022-07-18T03:07:13;10;10;
43479;PMS5003;29067;35.492;-97.520;2022-07-18T03:09:41;8;8;
43479;PMS5003;29067;35.492;-97.520;2022-07-18T03:12:09;8;8;
43479;PMS5003;29067;35.492;-97.520;2022-07-18T03:14:38;8;8;
43479;PMS5003;29067;35.492;-97.520;2022-07-18T03:17:06;8;7;
43479;PMS5003;29067;35.492;-97.520;2022-07-18T03:19:33;8;6;
43479;PMS5003;29067;35.492;-97.520;2022-07-18T03:22:01;7;7;
43479;PMS5003;29067;35.492;-97.520;2022-07-18T03:24:29;7;7;
43479;PMS5003;29067;35.492;-97.520;2022-07-18T03:26:57;9;9;
43479;PMS5003;29067;35.492;-97.520;2022-07-18T03:29:26;6;6;
43479;PMS5003;29067;35.492;-97.520;2022-07-18T03:31:53;7;7;
43479;PMS5003;29067;35.492;-97.520;2022-07-18T03:34:21;11;8;
43479;PMS5003;29067;35.492;-97.520;2022-07-18T03:36:50;10;8;
43479;PMS5003;29067;35.492;-97.520;2022-07-18T03:39:18;7;7;
43479;PMS5003;29067;35.492;-97.520;2022-07-18T03:41:45;8;7;
43479;PMS5003;29067;35.492;-97.520;2022-07-18T03:44:14;9;7;
43479;PMS5003;29067;35.492;-97.520;2022-07-18T03:46:42;9;7;
43479;PMS5003;29067;35.492;-97.520;2022-07-18T03:49:10;8;8;
43479;PMS5003;29067;35.492;-97.520;2022-07-18T03:51:38;8;6;
43479;PMS5003;29067;35.492;-97.520;2022-07-18T03:54:06;12;8;
43479;PMS5003;29067;35.492;-97.520;2022-07-18T03:56:34;8;8;
43479;PMS5003;29067;35.492;-97.520;2022-07-18T03:59:03;7;7;
43479;PMS5003;29067;35.492;-97.520;2022-07-18T04:01:32;7;7;
43479;PMS5003;29067;35.492;-97.520;2022-07-18T04:04:00;10;9;
43479;PMS5003;29067;35.492;-97.520;2022-07-18T04:06:28;10;9;
43479;PMS5003;29067;35.492;-97.520;2022-07-18T04:08:57;6;6;
43479;PMS5003;29067;35.492;-97.520;2022-07-18T04:11:25;8;8;
43479;PMS5003;29067;35.492;-97.520;2022-07-18T04:13:54;7;6;
43479;PMS5003;29067;35.492;-97.520;2022-07-18T04:16:22;8;8;
43479;PMS5003;29067;35.492;-97.520;2022-07-18T04:18:50;8;8;
43479;PMS5003;29067;35.492;-97.520;2022-07-18T04:21:18;8;8;
43479;PMS5003;29067;35.492;-97.520;2022-07-18T04:23:46;8;8;
43479;PMS5003;29067;35.492;-97.520;2022-07-18T04:26:13;7;7;
43479;PMS5003;29067;35.492;-97.520;2022-07-18T04:28:41;6;6;
43479;PMS5003;29067;35.492;-97.520;2022-07-18T04:31:09;7;7;
43479;PMS5003;29067;35.492;-97.520;2022-07-18T04:33:37;7;7;
43479;PMS5003;29067;35.492;-97.520;2022-07-18T04:36:06;7;7;
43479;PMS5003;29067;35.492;-97.520;2022-07-18T04:38:34;8;8;
43479;PMS5003;29067;35.492;-97.520;2022-07-18T04:41:02;9;9;
43479;PMS5003;29067;35.492;-97.520;2022-07-18T04:43:30;7;7;
43479;PMS5003;29067;35.492;-97.520;2022-07-18T04:45:59;8;8;
43479;PMS5003;29067;35.492;-97.520;2022-07-18T04:48:27;7;7;
43479;PMS5003;29067;35.492;-97.520;2022-07-18T04:50:55;5;5;
43479;PMS5003;29067;35.492;-97.520;2022-07-18T04:53:23;8;7;
43479;PMS5003;29067;35.492;-97.520;2022-07-18T04:55:52;8;8;
43479;PMS5003;29067;35.492;-97.520;2022-07-18T04:58:19;7;7;
43479;PMS5003;29067;35.492;-97.520;2022-07-18T05:00:46;7;7;
43479;PMS5003;29067;35.492;-97.520;2022-07-18T05:03:16;10;9;
43479;PMS5003;29067;35.492;-97.520;2022-07-18T05:05:44;9;9;
43479;PMS5003;29067;35.492;-97.520;2022-07-18T05:08:11;7;7;
43479;PMS5003;29067;35.492;-97.520;2022-07-18T05:10:40;7;7;
43479;PMS5003;29067;35.492;-97.520;2022-07-18T05:13:08;7;7;
43479;PMS5003;29067;35.492;-97.520;2022-07-18T05:15:36;7;7;
43479;PMS5003;29067;35.492;-97.520;2022-07-18T05:18:05;9;9;
43479;PMS5003;29067;35.492;-97.520;2022-07-18T05:20:32;9;9;
43479;PMS5003;29067;35.492;-97.520;2022-07-18T05:23:01;7;7;
43479;PMS5003;29067;35.492;-97.520;2022-07-18T05:25:29;8;8;
43479;PMS5003;29067;35.492;-97.520;2022-07-18T05:27:56;8;8;
43479;PMS5003;29067;35.492;-97.520;2022-07-18T05:30:24;10;9;
43479;PMS5003;29067;35.492;-97.520;2022-07-18T05:32:51;8;7;
43479;PMS5003;29067;35.492;-97.520;2022-07-18T05:35:19;10;10;
43479;PMS5003;29067;35.492;-97.520;2022-07-18T05:37:48;8;8;
43479;PMS5003;29067;35.492;-97.520;2022-07-18T05:40:16;8;8;
43479;PMS5003;29067;35.492;-97.520;2022-07-18T05:42:44;9;9;
43479;PMS5003;29067;35.492;-97.520;2022-07-18T05:45:13;8;8;
43479;PMS5003;29067;35.492;-97.520;2022-07-18T05:47:41;11;9;
43479;PMS5003;29067;35.492;-97.520;2022-07-18T05:50:09;8;8;
43479;PMS5003;29067;35.492;-97.520;2022-07-18T05:52:38;8;8;
43479;PMS5003;29067;35.492;-97.520;2022-07-18T05:55:06;9;9;
43479;PMS5003;29067;35.492;-97.520;2022-07-18T05:57:34;8;8;
43479;PMS5003;29067;35.492;-97.520;2022-07-18T06:00:03;9;9;
43479;PMS5003;29067;35.492;-97.520;2022-07-18T06:02:32;8;8;
43479;PMS5003;29067;35.492;-97.520;2022-07-18T06:05:00;9;9;
43479;PMS5003;29067;35.492;-97.520;2022-07-18T06:07:29;8;8;
43479;PMS5003;29067;35.492;-97.520;2022-07-18T06:09:58;9;9;
43479;PMS5003;29067;35.492;-97.520;2022-07-18T06:12:26;9;8;
43479;PMS5003;29067;35.492;-97.520;2022-07-18T06:14:57;8;8;
43479;PMS5003;29067;35.492;-97.520;2022-07-18T06:17:25;9;9;
43479;PMS5003;29067;35.492;-97.520;2022-07-18T06:19:53;10;10;
43479;PMS5003;29067;35.492;-97.520;2022-07-18T06:22:21;9;9;
43479;PMS5003;29067;35.492;-97.520;2022-07-18T06:24:50;9;9;
43479;PMS5003;29067;35.492;-97.520;2022-07-18T06:27:18;8;7;
43479;PMS5003;29067;35.492;-97.520;2022-07-18T06:29:46;11;10;
43479;PMS5003;29067;35.492;-97.520;2022-07-18T06:32:14;8;8;
43479;PMS5003;29067;35.492;-97.520;2022-07-18T06:34:42;9;9;
43479;PMS5003;29067;35.492;-97.520;2022-07-18T06:37:09;8;8;
43479;PMS5003;29067;35.492;-97.520;2022-07-18T06:39:37;10;8;
43479;PMS5003;29067;35.492;-97.520;2022-07-18T06:42:05;9;9;
43479;PMS5003;29067;35.492;-97.520;2022-07-18T06:44:34;9;8;
43479;PMS5003;29067;35.492;-97.520;2022-07-18T06:47:01;9;9;
43479;PMS5003;29067;35.492;-97.520;2022-07-18T06:49:29;9;9;
43479;PMS5003;29067;35.492;-97.520;2022-07-18T06:51:57;10;10;
43479;PMS5003;29067;35.492;-97.520;2022-07-18T06:54:24;10;10;
43479;PMS5003;29067;35.492;-97.520;2022-07-18T06:56:52;10;10;
43479;PMS5003;29067;35.492;-97.520;2022-07-18T06:59:20;10;10;
43479;PMS5003;29067;35.492;-97.520;2022-07-18T07:01:49;9;9;
43479;PMS5003;29067;35.492;-97.520;2022-07-18T07:04:16;10;10;
43479;PMS5003;29067;35.492;-97.520;2022-07-18T07:06:45;9;9;
43479;PMS5003;29067;35.492;-97.520;2022-07-18T07:09:14;9;9;
43479;PMS5003;29067;35.492;-97.520;2022-07-18T07:11:41;10;9;
43479;PMS5003;29067;35.492;-97.520;2022-07-18T07:14:09;9;9;
43479;PMS5003;29067;35.492;-97.520;2022-07-18T07:16:37;11;10;
43479;PMS5003;29067;35.492;-97.520;2022-07-18T07:19:04;10;10;
43479;PMS5003;29067;35.492;-97.520;2022-07-18T07:21:32;10;10;
43479;PMS5003;29067;35.492;-97.520;2022-07-18T07:24:00;11;11;
43479;PMS5003;29067;35.492;-97.520;2022-07-18T07:26:27;11;10;
43479;PMS5003;29067;35.492;-97.520;2022-07-18T07:28:55;8;8;
43479;PMS5003;29067;35.492;-97.520;2022-07-18T07:31:22;11;11;
43479;PMS5003;29067;35.492;-97.520;2022-07-18T07:33:50;10;10;
43479;PMS5003;29067;35.492;-97.520;2022-07-18T07:36:17;10;10;
43479;PMS5003;29067;35.492;-97.520;2022-07-18T07:38:45;9;8;
43479;PMS5003;29067;35.492;-97.520;2022-07-18T07:41:12;9;9;
43479;PMS5003;29067;35.492;-97.520;2022-07-18T07:43:40;10;10;
43479;PMS5003;29067;35.492;-97.520;2022-07-18T07:46:07;11;10;
43479;PMS5003;29067;35.492;-97.520;2022-07-18T07:48:35;9;9;
43479;PMS5003;29067;35.492;-97.520;2022-07-18T07:51:03;10;10;
43479;PMS5003;29067;35.492;-97.520;2022-07-18T07:53:32;12;12;
43479;PMS5003;29067;35.492;-97.520;2022-07-18T07:55:59;11;11;
43479;PMS5003;29067;35.492;-97.520;2022-07-18T07:58:27;11;11;
43479;PMS5003;29067;35.492;-97.520;2022-07-18T08:00:54;9;9;
43479;PMS5003;29067;35.492;-97.520;2022-07-18T08:03:22;13;11;
43479;PMS5003;29067;35.492;-97.520;2022-07-18T08:05:49;11;11;
43479;PMS5003;29067;35.492;-97.520;2022-07-18T08:08:19;11;10;
43479;PMS5003;29067;35.492;-97.520;2022-07-18T08:10:47;10;10;
43479;PMS5003;29067;35.492;-97.520;2022-07-18T08:13:15;12;11;
43479;PMS5003;29067;35.492;-97.520;2022-07-18T08:15:42;10;10;
43479;PMS5003;29067;35.492;-97.520;2022-07-18T08:18:11;10;10;
43479;PMS5003;29067;35.492;-97.520;2022-07-18T08:20:38;13;11;
43479;PMS5003;29067;35.492;-97.520;2022-07-18T08:23:07;12;11;
43479;PMS5003;29067;35.492;-97.520;2022-07-18T08:25:38;14;13;
43479;PMS5003;29067;35.492;-97.520;2022-07-18T08:28:08;11;11;
43479;PMS5003;29067;35.492;-97.520;2022-07-18T08:30:36;13;12;
43479;PMS5003;29067;35.492;-97.520;2022-07-18T08:33:06;10;10;
43479;PMS5003;29067;35.492;-97.520;2022-07-18T08:35:34;14;13;
43479;PMS5003;29067;35.492;-97.520;2022-07-18T08:38:02;12;12;
43479;PMS5003;29067;35.492;-97.520;2022-07-18T08:40:30;14;13;
43479;PMS5003;29067;35.492;-97.520;2022-07-18T08:42:58;12;11;
43479;PMS5003;29067;35.492;-97.520;2022-07-18T08:45:26;11;11;
43479;PMS5003;29067;35.492;-97.520;2022-07-18T08:47:54;12;11;
43479;PMS5003;29067;35.492;-97.520;2022-07-18T08:50:22;11;10;
43479;PMS5003;29067;35.492;-97.520;2022-07-18T08:52:50;14;14;
43479;PMS5003;29067;35.492;-97.520;2022-07-18T08:55:18;13;13;
43479;PMS5003;29067;35.492;-97.520;2022-07-18T08:57:46;13;13;
43479;PMS5003;29067;35.492;-97.520;2022-07-18T09:00:13;13;13;
43479;PMS5003;29067;35.492;-97.520;2022-07-18T09:02:42;12;11;
43479;PMS5003;29067;35.492;-97.520;2022-07-18T09:05:17;11;11;
43479;PMS5003;29067;35.492;-97.520;2022-07-18T09:07:47;17;17;
43479;PMS5003;29067;35.492;-97.520;2022-07-18T09:10:15;16;15;
43479;PMS5003;29067;35.492;-97.520;2022-07-18T09:12:55;14;14;
43479;PMS5003;29067;35.492;-97.520;2022-07-18T09:15:23;14;13;
43479;PMS5003;29067;35.492;-97.520;2022-07-18T09:17:55;13;13;
43479;PMS5003;29067;35.492;-97.520;2022-07-18T09:20:23;14;14;
43479;PMS5003;29067;35.492;-97.520;2022-07-18T09:22:51;14;14;
43479;PMS5003;29067;35.492;-97.520;2022-07-18T09:25:19;14;13;
43479;PMS5003;29067;35.492;-97.520;2022-07-18T09:27:49;13;13;
43479;PMS5003;29067;35.492;-97.520;2022-07-18T09:30:20;13;13;
43479;PMS5003;29067;35.492;-97.520;2022-07-18T09:32:51;13;13;
43479;PMS5003;29067;35.492;-97.520;2022-07-18T09:35:21;15;14;
43479;PMS5003;29067;35.492;-97.520;2022-07-18T09:37:52;16;15;
43479;PMS5003;29067;35.492;-97.520;2022-07-18T09:40:24;13;13;
43479;PMS5003;29067;35.492;-97.520;2022-07-18T09:42:55;15;13;
43479;PMS5003;29067;35.492;-97.520;2022-07-18T09:45:26;15;14;
43479;PMS5003;29067;35.492;-97.520;2022-07-18T09:47:56;13;13;
43479;PMS5003;29067;35.492;-97.520;2022-07-18T09:50:27;16;15;
43479;PMS5003;29067;35.492;-97.520;2022-07-18T09:52:58;12;12;
43479;PMS5003;29067;35.492;-97.520;2022-07-18T09:55:27;15;15;
43479;PMS5003;29067;35.492;-97.520;2022-07-18T09:57:57;16;15;
43479;PMS5003;29067;35.492;-97.520;2022-07-18T10:00:28;15;15;
43479;PMS5003;29067;35.492;-97.520;2022-07-18T10:02:58;16;16;
43479;PMS5003;29067;35.492;-97.520;2022-07-18T10:05:27;15;15;
43479;PMS5003;29067;35.492;-97.520;2022-07-18T10:07:58;14;14;
43479;PMS5003;29067;35.492;-97.520;2022-07-18T10:10:28;13;13;
43479;PMS5003;29067;35.492;-97.520;2022-07-18T10:12:57;15;15;
43479;PMS5003;29067;35.492;-97.520;2022-07-18T10:15:27;18;16;
43479;PMS5003;29067;35.492;-97.520;2022-07-18T10:17:57;17;16;
43479;PMS5003;29067;35.492;-97.520;2022-07-18T10:20:27;16;16;
43479;PMS5003;29067;35.492;-97.520;2022-07-18T10:22:59;14;14;
43479;PMS5003;29067;35.492;-97.520;2022-07-18T10:25:32;19;18;
43479;PMS5003;29067;35.492;-97.520;2022-07-18T10:28:03;16;16;
43479;PMS5003;29067;35.492;-97.520;2022-07-18T10:30:34;16;16;
43479;PMS5003;29067;35.492;-97.520;2022-07-18T10:33:35;16;16;
43479;PMS5003;29067;35.492;-97.520;2022-07-18T10:36:06;14;14;
43479;PMS5003;29067;35.492;-97.520;2022-07-18T10:38:36;16;16;
43479;PMS5003;29067;35.492;-97.520;2022-07-18T10:41:06;15;15;
43479;PMS5003;29067;35.492;-97.520;2022-07-18T10:43:40;17;17;
43479;PMS5003;29067;35.492;-97.520;2022-07-18T10:46:11;16;16;
43479;PMS5003;29067;35.492;-97.520;2022-07-18T10:48:55;14;14;
43479;PMS5003;29067;35.492;-97.520;2022-07-18T10:51:32;16;16;
43479;PMS5003;29067;35.492;-97.520;2022-07-18T10:54:04;15;15;
43479;PMS5003;29067;35.492;-97.520;2022-07-18T10:57:07;16;16;
43479;PMS5003;29067;35.492;-97.520;2022-07-18T10:59:37;18;17;
43479;PMS5003;29067;35.492;-97.520;2022-07-18T11:03:03;20;20;
43479;PMS5003;29067;35.492;-97.520;2022-07-18T11:05:33;18;17;
43479;PMS5003;29067;35.492;-97.520;2022-07-18T11:08:18;17;17;
43479;PMS5003;29067;35.492;-97.520;2022-07-18T11:11:04;16;16;
43479;PMS5003;29067;35.492;-97.520;2022-07-18T11:13:40;17;17;
43479;PMS5003;29067;35.492;-97.520;2022-07-18T11:16:10;15;15;
43479;PMS5003;29067;35.492;-97.520;2022-07-18T11:19:35;15;15;
43479;PMS5003;29067;35.492;-97.520;2022-07-18T11:22:02;17;17;
43479;PMS5003;29067;35.492;-97.520;2022-07-18T11:24:30;16;15;
43479;PMS5003;29067;35.492;-97.520;2022-07-18T11:26:57;17;16;
43479;PMS5003;29067;35.492;-97.520;2022-07-18T11:29:25;16;16;
43479;PMS5003;29067;35.492;-97.520;2022-07-18T11:31:53;16;16;
43479;PMS5003;29067;35.492;-97.520;2022-07-18T11:34:23;15;15;
43479;PMS5003;29067;35.492;-97.520;2022-07-18T11:36:52;16;16;
43479;PMS5003;29067;35.492;-97.520;2022-07-18T11:39:29;17;17;
43479;PMS5003;29067;35.492;-97.520;2022-07-18T11:41:58;19;19;
43479;PMS5003;29067;35.492;-97.520;2022-07-18T11:44:26;17;17;
43479;PMS5003;29067;35.492;-97.520;2022-07-18T11:47:10;18;17;
43479;PMS5003;29067;35.492;-97.520;2022-07-18T11:49:38;17;17;
43479;PMS5003;29067;35.492;-97.520;2022-07-18T11:52:06;15;15;
43479;PMS5003;29067;35.492;-97.520;2022-07-18T11:54:34;17;17;
43479;PMS5003;29067;35.492;-97.520;2022-07-18T11:57:03;17;17;
43479;PMS5003;29067;35.492;-97.520;2022-07-18T11:59:38;20;19;
43479;PMS5003;29067;35.492;-97.520;2022-07-18T12:02:08;19;18;
43479;PMS5003;29067;35.492;-97.520;2022-07-18T12:04:35;19;18;
43479;PMS5003;29067;35.492;-97.520;2022-07-18T12:07:20;16;16;
43479;PMS5003;29067;35.492;-97.520;2022-07-18T12:09:51;17;16;
43479;PMS5003;29067;35.492;-97.520;2022-07-18T12:12:21;19;19;
43479;PMS5003;29067;35.492;-97.520;2022-07-18T12:14:57;18;18;
43479;PMS5003;29067;35.492;-97.520;2022-07-18T12:17:27;17;16;
43479;PMS5003;29067;35.492;-97.520;2022-07-18T12:20:10;16;16;
43479;PMS5003;29067;35.492;-97.520;2022-07-18T12:23:11;20;20;
43479;PMS5003;29067;35.492;-97.520;2022-07-18T12:25:39;19;19;
43479;PMS5003;29067;35.492;-97.520;2022-07-18T12:28:12;15;15;
43479;PMS5003;29067;35.492;-97.520;2022-07-18T12:30:41;18;18;
43479;PMS5003;29067;35.492;-97.520;2022-07-18T12:33:09;17;17;
43479;PMS5003;29067;35.492;-97.520;2022-07-18T12:35:39;20;19;
43479;PMS5003;29067;35.492;-97.520;2022-07-18T12:38:07;18;18;
43479;PMS5003;29067;35.492;-97.520;2022-07-18T12:40:41;16;16;
43479;PMS5003;29067;35.492;-97.520;2022-07-18T12:43:11;18;17;
43479;PMS5003;29067;35.492;-97.520;2022-07-18T12:45:41;17;17;
43479;PMS5003;29067;35.492;-97.520;2022-07-18T12:48:10;16;16;
43479;PMS5003;29067;35.492;-97.520;2022-07-18T12:50:39;22;19;
43479;PMS5003;29067;35.492;-97.520;2022-07-18T12:53:08;19;19;
43479;PMS5003;29067;35.492;-97.520;2022-07-18T12:55:36;20;19;
43479;PMS5003;29067;35.492;-97.520;2022-07-18T12:58:04;20;20;
43479;PMS5003;29067;35.492;-97.520;2022-07-18T13:00:33;21;19;
43479;PMS5003;29067;35.492;-97.520;2022-07-18T13:03:01;16;16;
43479;PMS5003;29067;35.492;-97.520;2022-07-18T13:05:29;20;18;
43479;PMS5003;29067;35.492;-97.520;2022-07-18T13:07:57;19;19;
43479;PMS5003;29067;35.492;-97.520;2022-07-18T13:10:25;18;17;
43479;PMS5003;29067;35.492;-97.520;2022-07-18T13:12:54;18;18;
43479;PMS5003;29067;35.492;-97.520;2022-07-18T13:15:22;16;16;
43479;PMS5003;29067;35.492;-97.520;2022-07-18T13:17:50;19;19;
43479;PMS5003;29067;35.492;-97.520;2022-07-18T13:20:18;17;16;
43479;PMS5003;29067;35.492;-97.520;2022-07-18T13:22:46;15;15;
43479;PMS5003;29067;35.492;-97.520;2022-07-18T13:25:13;16;16;
43479;PMS5003;29067;35.492;-97.520;2022-07-18T13:27:42;18;17;
43479;PMS5003;29067;35.492;-97.520;2022-07-18T13:30:10;19;18;
43479;PMS5003;29067;35.492;-97.520;2022-07-18T13:32:39;17;17;
43479;PMS5003;29067;35.492;-97.520;2022-07-18T13:35:07;19;19;
43479;PMS5003;29067;35.492;-97.520;2022-07-18T13:37:35;17;17;
43479;PMS5003;29067;35.492;-97.520;2022-07-18T13:40:03;15;15;
43479;PMS5003;29067;35.492;-97.520;2022-07-18T13:42:32;19;19;
43479;PMS5003;29067;35.492;-97.520;2022-07-18T13:45:02;22;18;
43479;PMS5003;29067;35.492;-97.520;2022-07-18T13:47:30;15;15;
43479;PMS5003;29067;35.492;-97.520;2022-07-18T13:49:59;14;14;
43479;PMS5003;29067;35.492;-97.520;2022-07-18T13:52:27;16;16;
43479;PMS5003;29067;35.492;-97.520;2022-07-18T13:54:55;16;16;
43479;PMS5003;29067;35.492;-97.520;2022-07-18T13:57:23;15;15;
43479;PMS5003;29067;35.492;-97.520;2022-07-18T13:59:50;17;17;
43479;PMS5003;29067;35.492;-97.520;2022-07-18T14:02:18;15;15;
43479;PMS5003;29067;35.492;-97.520;2022-07-18T14:04:46;15;15;
43479;PMS5003;29067;35.492;-97.520;2022-07-18T14:07:14;17;17;
43479;PMS5003;29067;35.492;-97.520;2022-07-18T14:09:41;16;16;
43479;PMS5003;29067;35.492;-97.520;2022-07-18T14:12:09;17;17;
43479;PMS5003;29067;35.492;-97.520;2022-07-18T14:14:38;15;14;
43479;PMS5003;29067;35.492;-97.520;2022-07-18T14:17:05;16;16;
43479;PMS5003;29067;35.492;-97.520;2022-07-18T14:19:33;19;19;
43479;PMS5003;29067;35.492;-97.520;2022-07-18T14:22:00;19;18;
43479;PMS5003;29067;35.492;-97.520;2022-07-18T14:24:28;19;18;
43479;PMS5003;29067;35.492;-97.520;2022-07-18T14:26:56;18;18;
43479;PMS5003;29067;35.492;-97.520;2022-07-18T14:29:23;19;19;
43479;PMS5003;29067;35.492;-97.520;2022-07-18T14:31:51;17;17;
43479;PMS5003;29067;35.492;-97.520;2022-07-18T14:34:18;18;17;
43479;PMS5003;29067;35.492;-97.520;2022-07-18T14:36:46;18;17;
43479;PMS5003;29067;35.492;-97.520;2022-07-18T14:39:13;18;18;
43479;PMS5003;29067;35.492;-97.520;2022-07-18T14:41:42;17;17;
43479;PMS5003;29067;35.492;-97.520;2022-07-18T14:44:09;17;17;
43479;PMS5003;29067;35.492;-97.520;2022-07-18T14:46:37;16;16;
43479;PMS5003;29067;35.492;-97.520;2022-07-18T14:49:04;16;16;
43479;PMS5003;29067;35.492;-97.520;2022-07-18T14:51:33;20;20;
43479;PMS5003;29067;35.492;-97.520;2022-07-18T14:54:00;17;17;
43479;PMS5003;29067;35.492;-97.520;2022-07-18T14:56:28;16;15;
43479;PMS5003;29067;35.492;-97.520;2022-07-18T14:58:56;17;17;
43479;PMS5003;29067;35.492;-97.520;2022-07-18T15:01:23;17;16;
43479;PMS5003;29067;35.492;-97.520;2022-07-18T15:03:51;16;16;
43479;PMS5003;29067;35.492;-97.520;2022-07-18T15:06:19;15;15;
43479;PMS5003;29067;35.492;-97.520;2022-07-18T15:08:47;19;17;
43479;PMS5003;29067;35.492;-97.520;2022-07-18T15:11:15;16;16;
43479;PMS5003;29067;35.492;-97.520;2022-07-18T15:13:44;17;16;
43479;PMS5003;29067;35.492;-97.520;2022-07-18T15:16:12;20;20;
43479;PMS5003;29067;35.492;-97.520;2022-07-18T15:18:40;19;17;
43479;PMS5003;29067;35.492;-97.520;2022-07-18T15:21:07;17;16;
43479;PMS5003;29067;35.492;-97.520;2022-07-18T15:23:35;17;17;
43479;PMS5003;29067;35.492;-97.520;2022-07-18T15:26:03;16;16;
43479;PMS5003;29067;35.492;-97.520;2022-07-18T15:28:31;14;14;
43479;PMS5003;29067;35.492;-97.520;2022-07-18T15:30:58;17;17;
43479;PMS5003;29067;35.492;-97.520;2022-07-18T15:33:25;15;15;
43479;PMS5003;29067;35.492;-97.520;2022-07-18T15:35:54;18;18;
43479;PMS5003;29067;35.492;-97.520;2022-07-18T15:38:22;19;19;
43479;PMS5003;29067;35.492;-97.520;2022-07-18T15:40:50;18;16;
43479;PMS5003;29067;35.492;-97.520;2022-07-18T15:43:17;18;17;
43479;PMS5003;29067;35.492;-97.520;2022-07-18T15:45:45;16;16;
43479;PMS5003;29067;35.492;-97.520;2022-07-18T15:48:13;17;15;
43479;PMS5003;29067;35.492;-97.520;2022-07-18T15:50:41;16;16;
43479;PMS5003;29067;35.492;-97.520;2022-07-18T15:53:09;14;14;
43479;PMS5003;29067;35.492;-97.520;2022-07-18T15:55:37;16;16;
43479;PMS5003;29067;35.492;-97.520;2022-07-18T15:58:05;13;13;
43479;PMS5003;29067;35.492;-97.520;2022-07-18T16:00:33;16;15;
43479;PMS5003;29067;35.492;-97.520;2022-07-18T16:03:01;14;14;
43479;PMS5003;29067;35.492;-97.520;2022-07-18T16:05:29;19;15;
43479;PMS5003;29067;35.492;-97.520;2022-07-18T16:07:57;14;14;
43479;PMS5003;29067;35.492;-97.520;2022-07-18T16:10:26;12;12;
43479;PMS5003;29067;35.492;-97.520;2022-07-18T16:12:54;14;14;
43479;PMS5003;29067;35.492;-97.520;2022-07-18T16:15:21;15;14;
43479;PMS5003;29067;35.492;-97.520;2022-07-18T16:17:50;16;14;
43479;PMS5003;29067;35.492;-97.520;2022-07-18T16:20:17;17;15;
43479;PMS5003;29067;35.492;-97.520;2022-07-18T16:22:45;13;12;
43479;PMS5003;29067;35.492;-97.520;2022-07-18T16:25:13;14;14;